sensor_id;sensor_type;location;lat;lon;timestamp;pressure;altitude;pressure_sealevel;temperature;humidity
73242;BME280;65659;49.234;-2.094;2023-02-28T00:00:08;101800.48;;;23.21;21.49
73242;BME280;65659;49.234;-2.094;2023-02-28T00:02:32;101801.05;;;23.64;21.34
73242;BME280;65659;49.234;-2.094;2023-02-28T00:04:58;101797.92;;;23.83;21.40
73242;BME280;65659;49.234;-2.094;2023-02-28T00:07:24;101802.31;;;23.98;21.49
73242;BME280;65659;49.234;-2.094;2023-02-28T00:09:49;101799.37;;;23.50;21.51
73242;BME280;65659;49.234;-2.094;2023-02-28T00:12:15;101799.77;;;23.51;21.51
73242;BME280;65659;49.234;-2.094;2023-02-28T00:14:41;101810.20;;;23.50;21.54
73242;BME280;65659;49.234;-2.094;2023-02-28T00:17:06;101809.19;;;23.49;21.52
73242;BME280;65659;49.234;-2.094;2023-02-28T00:19:32;101811.46;;;23.96;21.52
73242;BME280;65659;49.234;-2.094;2023-02-28T00:21:58;101809.92;;;23.50;21.54
73242;BME280;65659;49.234;-2.094;2023-02-28T00:24:24;101807.37;;;23.93;21.55
73242;BME280;65659;49.234;-2.094;2023-02-28T00:26:49;101808.63;;;23.95;21.55
73242;BME280;65659;49.234;-2.094;2023-02-28T00:29:15;101808.32;;;23.49;21.56
73242;BME280;65659;49.234;-2.094;2023-02-28T00:31:41;101805.96;;;23.50;21.52
73242;BME280;65659;49.234;-2.094;2023-02-28T00:34:07;101803.46;;;23.98;21.50
73242;BME280;65659;49.234;-2.094;2023-02-28T00:36:32;101803.47;;;23.49;21.50
73242;BME280;65659;49.234;-2.094;2023-02-28T00:38:58;101801.40;;;23.70;21.52
73242;BME280;65659;49.234;-2.094;2023-02-28T00:41:24;101799.33;;;23.68;21.53
73242;BME280;65659;49.234;-2.094;2023-02-28T00:43:50;101800.16;;;23.46;21.54
73242;BME280;65659;49.234;-2.094;2023-02-28T00:46:15;101802.89;;;23.95;21.52
73242;BME280;65659;49.234;-2.094;2023-02-28T00:48:41;101804.20;;;23.97;21.49
73242;BME280;65659;49.234;-2.094;2023-02-28T00:51:07;101798.27;;;23.46;21.47
73242;BME280;65659;49.234;-2.094;2023-02-28T00:53:33;101799.95;;;23.92;21.46
73242;BME280;65659;49.234;-2.094;2023-02-28T00:55:58;101795.38;;;23.48;21.42
73242;BME280;65659;49.234;-2.094;2023-02-28T00:58:24;101798.69;;;23.74;21.41
73242;BME280;65659;49.234;-2.094;2023-02-28T01:00:51;101796.75;;;24.02;21.39
73242;BME280;65659;49.234;-2.094;2023-02-28T01:03:16;101799.34;;;23.76;21.37
73242;BME280;65659;49.234;-2.094;2023-02-28T01:05:41;101803.55;;;23.75;21.40
73242;BME280;65659;49.234;-2.094;2023-02-28T01:08:07;101808.59;;;23.54;21.36
73242;BME280;65659;49.234;-2.094;2023-02-28T01:10:33;101809.29;;;23.78;21.34
73242;BME280;65659;49.234;-2.094;2023-02-28T01:12:58;101808.96;;;23.52;21.38
73242;BME280;65659;49.234;-2.094;2023-02-28T01:15:24;101810.25;;;23.95;21.37
73242;BME280;65659;49.234;-2.094;2023-02-28T01:17:50;101808.90;;;23.94;21.36
73242;BME280;65659;49.234;-2.094;2023-02-28T01:20:16;101815.33;;;23.69;21.39
73242;BME280;65659;49.234;-2.094;2023-02-28T01:22:41;101812.08;;;23.66;21.36
73242;BME280;65659;49.234;-2.094;2023-02-28T01:25:08;101812.62;;;23.92;21.40
73242;BME280;65659;49.234;-2.094;2023-02-28T01:27:33;101816.81;;;23.74;21.36
73242;BME280;65659;49.234;-2.094;2023-02-28T01:29:58;101819.58;;;23.77;21.34
73242;BME280;65659;49.234;-2.094;2023-02-28T01:32:24;101813.80;;;24.00;21.33
73242;BME280;65659;49.234;-2.094;2023-02-28T01:34:50;101819.78;;;23.53;21.30
73242;BME280;65659;49.234;-2.094;2023-02-28T01:37:16;101820.77;;;23.73;21.29
73242;BME280;65659;49.234;-2.094;2023-02-28T01:39:42;101820.22;;;23.45;21.28
73242;BME280;65659;49.234;-2.094;2023-02-28T01:42:09;101823.86;;;23.88;21.29
73242;BME280;65659;49.234;-2.094;2023-02-28T01:46:59;101815.73;;;23.42;21.29
73242;BME280;65659;49.234;-2.094;2023-02-28T01:49:24;101812.70;;;23.42;21.31
73242;BME280;65659;49.234;-2.094;2023-02-28T01:51:52;101810.57;;;23.64;21.29
73242;BME280;65659;49.234;-2.094;2023-02-28T01:54:18;101816.54;;;23.65;21.30
73242;BME280;65659;49.234;-2.094;2023-02-28T01:56:45;101818.07;;;23.65;21.26
73242;BME280;65659;49.234;-2.094;2023-02-28T01:59:07;101821.58;;;23.89;21.26
73242;BME280;65659;49.234;-2.094;2023-02-28T02:01:33;101817.16;;;23.90;21.25
73242;BME280;65659;49.234;-2.094;2023-02-28T02:04:01;101817.84;;;23.86;21.20
73242;BME280;65659;49.234;-2.094;2023-02-28T02:06:27;101818.59;;;23.61;21.20
73242;BME280;65659;49.234;-2.094;2023-02-28T02:08:50;101814.22;;;23.61;21.19
73242;BME280;65659;49.234;-2.094;2023-02-28T02:11:19;101811.80;;;23.63;21.20
73242;BME280;65659;49.234;-2.094;2023-02-28T02:13:51;101817.20;;;23.88;21.18
73242;BME280;65659;49.234;-2.094;2023-02-28T02:16:19;101824.28;;;23.65;21.18
73242;BME280;65659;49.234;-2.094;2023-02-28T02:18:37;101821.99;;;23.64;21.21
73242;BME280;65659;49.234;-2.094;2023-02-28T02:21:20;101816.38;;;23.65;21.18
73242;BME280;65659;49.234;-2.094;2023-02-28T02:25:53;101818.22;;;23.49;21.14
73242;BME280;65659;49.234;-2.094;2023-02-28T02:30:54;101821.98;;;23.74;21.12
73242;BME280;65659;49.234;-2.094;2023-02-28T02:33:26;101820.40;;;23.75;21.11
73242;BME280;65659;49.234;-2.094;2023-02-28T02:35:40;101813.85;;;23.77;21.09
73242;BME280;65659;49.234;-2.094;2023-02-28T02:38:03;101816.38;;;23.79;21.10
73242;BME280;65659;49.234;-2.094;2023-02-28T02:40:30;101811.29;;;23.76;21.12
73242;BME280;65659;49.234;-2.094;2023-02-28T02:42:53;101811.52;;;23.95;21.13
73242;BME280;65659;49.234;-2.094;2023-02-28T02:45:19;101807.68;;;23.74;21.13
73242;BME280;65659;49.234;-2.094;2023-02-28T02:47:43;101813.47;;;23.76;21.08
73242;BME280;65659;49.234;-2.094;2023-02-28T02:50:11;101816.07;;;23.99;21.06
73242;BME280;65659;49.234;-2.094;2023-02-28T02:52:39;101811.98;;;23.50;21.09
73242;BME280;65659;49.234;-2.094;2023-02-28T02:55:00;101809.99;;;23.51;21.08
73242;BME280;65659;49.234;-2.094;2023-02-28T02:57:29;101813.23;;;23.74;21.08
73242;BME280;65659;49.234;-2.094;2023-02-28T02:59:52;101810.15;;;23.51;21.10
73242;BME280;65659;49.234;-2.094;2023-02-28T03:02:17;101811.38;;;23.79;21.06
73242;BME280;65659;49.234;-2.094;2023-02-28T03:04:45;101812.04;;;23.81;21.04
73242;BME280;65659;49.234;-2.094;2023-02-28T03:07:08;101809.39;;;23.82;20.99
73242;BME280;65659;49.234;-2.094;2023-02-28T03:09:34;101806.79;;;23.79;20.96
73242;BME280;65659;49.234;-2.094;2023-02-28T03:12:00;101811.56;;;23.74;20.96
73242;BME280;65659;49.234;-2.094;2023-02-28T03:14:35;101811.65;;;23.50;20.96
73242;BME280;65659;49.234;-2.094;2023-02-28T03:17:02;101803.88;;;23.51;20.97
73242;BME280;65659;49.234;-2.094;2023-02-28T03:19:27;101800.65;;;24.05;20.91
73242;BME280;65659;49.234;-2.094;2023-02-28T03:21:49;101802.11;;;23.59;20.90
73242;BME280;65659;49.234;-2.094;2023-02-28T03:24:11;101804.70;;;23.62;20.86
73242;BME280;65659;49.234;-2.094;2023-02-28T03:26:38;101805.44;;;23.86;20.90
73242;BME280;65659;49.234;-2.094;2023-02-28T03:29:03;101803.55;;;23.62;20.88
73242;BME280;65659;49.234;-2.094;2023-02-28T03:31:29;101804.13;;;23.64;20.87
73242;BME280;65659;49.234;-2.094;2023-02-28T03:33:55;101803.18;;;23.85;20.89
73242;BME280;65659;49.234;-2.094;2023-02-28T03:36:20;101807.19;;;23.63;20.87
73242;BME280;65659;49.234;-2.094;2023-02-28T03:38:47;101805.79;;;23.64;20.88
73242;BME280;65659;49.234;-2.094;2023-02-28T03:41:13;101807.28;;;23.86;20.87
73242;BME280;65659;49.234;-2.094;2023-02-28T03:43:36;101808.56;;;23.86;20.87
73242;BME280;65659;49.234;-2.094;2023-02-28T03:46:02;101808.43;;;23.59;20.88
73242;BME280;65659;49.234;-2.094;2023-02-28T03:48:30;101812.06;;;23.59;20.89
73242;BME280;65659;49.234;-2.094;2023-02-28T03:50:54;101815.01;;;23.83;20.89
73242;BME280;65659;49.234;-2.094;2023-02-28T03:53:19;101812.68;;;23.57;20.90
73242;BME280;65659;49.234;-2.094;2023-02-28T03:55:45;101814.28;;;23.89;20.83
73242;BME280;65659;49.234;-2.094;2023-02-28T03:58:14;101815.48;;;23.85;20.85
73242;BME280;65659;49.234;-2.094;2023-02-28T04:00:36;101815.83;;;23.84;20.89
73242;BME280;65659;49.234;-2.094;2023-02-28T04:03:00;101818.38;;;23.86;20.85
73242;BME280;65659;49.234;-2.094;2023-02-28T04:05:27;101821.17;;;23.84;20.82
73242;BME280;65659;49.234;-2.094;2023-02-28T04:07:52;101821.48;;;23.60;20.84
73242;BME280;65659;49.234;-2.094;2023-02-28T04:10:17;101819.96;;;23.82;20.86
73242;BME280;65659;49.234;-2.094;2023-02-28T04:12:43;101823.99;;;23.62;20.81
73242;BME280;65659;49.234;-2.094;2023-02-28T04:15:09;101826.30;;;23.87;20.80
73242;BME280;65659;49.234;-2.094;2023-02-28T04:17:34;101828.34;;;23.64;20.78
73242;BME280;65659;49.234;-2.094;2023-02-28T04:20:00;101827.94;;;23.67;20.77
73242;BME280;65659;49.234;-2.094;2023-02-28T04:22:26;101832.15;;;23.69;20.73
73242;BME280;65659;49.234;-2.094;2023-02-28T04:24:52;101831.73;;;23.96;20.64
73242;BME280;65659;49.234;-2.094;2023-02-28T04:27:17;101833.71;;;23.69;20.69
73242;BME280;65659;49.234;-2.094;2023-02-28T04:29:43;101836.38;;;23.96;20.67
73242;BME280;65659;49.234;-2.094;2023-02-28T04:32:08;101837.73;;;23.94;20.68
73242;BME280;65659;49.234;-2.094;2023-02-28T04:34:34;101839.50;;;23.89;20.73
73242;BME280;65659;49.234;-2.094;2023-02-28T04:37:00;101842.13;;;23.63;20.70
73242;BME280;65659;49.234;-2.094;2023-02-28T04:39:26;101840.44;;;23.82;20.75
73242;BME280;65659;49.234;-2.094;2023-02-28T04:41:52;101835.17;;;23.57;20.78
73242;BME280;65659;49.234;-2.094;2023-02-28T04:44:18;101841.53;;;23.60;20.76
73242;BME280;65659;49.234;-2.094;2023-02-28T04:46:43;101841.28;;;23.85;20.72
73242;BME280;65659;49.234;-2.094;2023-02-28T04:49:11;101842.62;;;24.06;20.74
73242;BME280;65659;49.234;-2.094;2023-02-28T04:51:35;101845.73;;;24.04;20.76
73242;BME280;65659;49.234;-2.094;2023-02-28T04:54:00;101844.84;;;23.77;20.76
73242;BME280;65659;49.234;-2.094;2023-02-28T04:56:27;101850.60;;;24.01;20.80
73242;BME280;65659;49.234;-2.094;2023-02-28T04:58:52;101848.78;;;23.74;20.77
73242;BME280;65659;49.234;-2.094;2023-02-28T05:01:20;101848.36;;;23.74;20.80
73242;BME280;65659;49.234;-2.094;2023-02-28T05:03:43;101845.29;;;23.79;20.77
73242;BME280;65659;49.234;-2.094;2023-02-28T05:06:08;101849.95;;;23.80;20.75
73242;BME280;65659;49.234;-2.094;2023-02-28T05:08:34;101851.08;;;24.02;20.79
73242;BME280;65659;49.234;-2.094;2023-02-28T05:11:00;101844.25;;;23.97;20.80
73242;BME280;65659;49.234;-2.094;2023-02-28T05:13:25;101847.86;;;23.98;20.78
73242;BME280;65659;49.234;-2.094;2023-02-28T05:15:51;101853.12;;;23.74;20.74
73242;BME280;65659;49.234;-2.094;2023-02-28T05:18:16;101856.70;;;23.77;20.73
73242;BME280;65659;49.234;-2.094;2023-02-28T05:20:42;101857.41;;;23.98;20.73
73242;BME280;65659;49.234;-2.094;2023-02-28T05:23:10;101856.38;;;23.69;20.77
73242;BME280;65659;49.234;-2.094;2023-02-28T05:25:34;101861.63;;;23.66;20.83
73242;BME280;65659;49.234;-2.094;2023-02-28T05:28:00;101860.17;;;23.89;20.83
73242;BME280;65659;49.234;-2.094;2023-02-28T05:30:25;101858.48;;;23.68;20.81
73242;BME280;65659;49.234;-2.094;2023-02-28T05:32:52;101860.11;;;23.68;20.85
73242;BME280;65659;49.234;-2.094;2023-02-28T05:35:17;101862.10;;;23.69;20.84
73242;BME280;65659;49.234;-2.094;2023-02-28T05:37:43;101858.12;;;23.70;20.81
73242;BME280;65659;49.234;-2.094;2023-02-28T05:40:09;101859.36;;;23.88;20.87
73242;BME280;65659;49.234;-2.094;2023-02-28T05:42:34;101864.41;;;23.60;20.89
73242;BME280;65659;49.234;-2.094;2023-02-28T05:45:00;101870.08;;;23.59;20.88
73242;BME280;65659;49.234;-2.094;2023-02-28T05:47:25;101867.44;;;23.82;20.90
73242;BME280;65659;49.234;-2.094;2023-02-28T05:49:52;101868.04;;;23.58;20.88
73242;BME280;65659;49.234;-2.094;2023-02-28T05:52:17;101873.27;;;23.53;20.94
73242;BME280;65659;49.234;-2.094;2023-02-28T05:54:43;101876.35;;;23.50;20.94
73242;BME280;65659;49.234;-2.094;2023-02-28T05:57:09;101875.78;;;23.77;20.90
73242;BME280;65659;49.234;-2.094;2023-02-28T05:59:34;101869.87;;;23.54;20.94
73242;BME280;65659;49.234;-2.094;2023-02-28T06:02:00;101866.10;;;23.32;20.91
73242;BME280;65659;49.234;-2.094;2023-02-28T06:04:26;101870.28;;;23.27;20.91
73242;BME280;65659;49.234;-2.094;2023-02-28T06:06:52;101869.83;;;23.49;20.93
73242;BME280;65659;49.234;-2.094;2023-02-28T06:09:18;101869.08;;;23.49;20.95
73242;BME280;65659;49.234;-2.094;2023-02-28T06:11:44;101867.37;;;23.76;20.91
73242;BME280;65659;49.234;-2.094;2023-02-28T06:14:14;101866.09;;;23.27;20.91
73242;BME280;65659;49.234;-2.094;2023-02-28T06:16:35;101866.75;;;23.32;20.90
73242;BME280;65659;49.234;-2.094;2023-02-28T06:19:03;101863.31;;;23.36;20.85
73242;BME280;65659;49.234;-2.094;2023-02-28T06:21:29;101857.79;;;23.62;20.85
73242;BME280;65659;49.234;-2.094;2023-02-28T06:23:52;101856.25;;;23.63;20.84
73242;BME280;65659;49.234;-2.094;2023-02-28T06:26:18;101850.03;;;23.42;20.84
73242;BME280;65659;49.234;-2.094;2023-02-28T06:28:43;101850.95;;;23.69;20.81
73242;BME280;65659;49.234;-2.094;2023-02-28T06:31:10;101847.04;;;23.72;20.77
73242;BME280;65659;49.234;-2.094;2023-02-28T06:33:35;101844.20;;;23.73;20.77
73242;BME280;65659;49.234;-2.094;2023-02-28T06:36:01;101842.60;;;23.51;20.79
73242;BME280;65659;49.234;-2.094;2023-02-28T06:38:26;101847.43;;;23.52;20.76
73242;BME280;65659;49.234;-2.094;2023-02-28T06:40:54;101847.80;;;23.50;20.80
73242;BME280;65659;49.234;-2.094;2023-02-28T06:43:18;101858.33;;;23.97;20.81
73242;BME280;65659;49.234;-2.094;2023-02-28T06:45:44;101861.73;;;23.97;20.77
73242;BME280;65659;49.234;-2.094;2023-02-28T06:48:10;101862.43;;;23.48;20.77
73242;BME280;65659;49.234;-2.094;2023-02-28T06:50:35;101866.70;;;23.70;20.80
73242;BME280;65659;49.234;-2.094;2023-02-28T06:53:01;101871.43;;;23.70;20.83
73242;BME280;65659;49.234;-2.094;2023-02-28T06:55:27;101876.36;;;23.45;20.81
73242;BME280;65659;49.234;-2.094;2023-02-28T06:57:53;101875.26;;;23.51;20.75
73242;BME280;65659;49.234;-2.094;2023-02-28T07:00:18;101878.18;;;23.52;20.75
73242;BME280;65659;49.234;-2.094;2023-02-28T07:02:44;101891.88;;;23.76;20.74
73242;BME280;65659;49.234;-2.094;2023-02-28T07:05:10;101898.93;;;23.77;20.74
73242;BME280;65659;49.234;-2.094;2023-02-28T07:07:35;101899.62;;;23.51;20.74
73242;BME280;65659;49.234;-2.094;2023-02-28T07:10:01;101898.89;;;23.78;20.72
73242;BME280;65659;49.234;-2.094;2023-02-28T07:12:27;101906.01;;;23.82;20.73
73242;BME280;65659;49.234;-2.094;2023-02-28T07:14:53;101907.34;;;23.65;20.70
73242;BME280;65659;49.234;-2.094;2023-02-28T07:17:18;101905.24;;;23.61;20.66
73242;BME280;65659;49.234;-2.094;2023-02-28T07:19:44;101904.37;;;23.82;20.68
73242;BME280;65659;49.234;-2.094;2023-02-28T07:22:10;101909.44;;;23.61;20.68
73242;BME280;65659;49.234;-2.094;2023-02-28T07:24:35;101917.19;;;23.89;20.68
73242;BME280;65659;49.234;-2.094;2023-02-28T07:27:01;101917.57;;;23.73;20.59
73242;BME280;65659;49.234;-2.094;2023-02-28T07:29:27;101912.51;;;23.35;20.54
73242;BME280;65659;49.234;-2.094;2023-02-28T07:31:53;101920.38;;;23.68;20.45
73242;BME280;65659;49.234;-2.094;2023-02-28T07:34:19;101920.57;;;23.71;20.41
73242;BME280;65659;49.234;-2.094;2023-02-28T07:36:44;101922.94;;;24.02;20.34
73242;BME280;65659;49.234;-2.094;2023-02-28T07:39:10;101928.91;;;23.79;20.36
73242;BME280;65659;49.234;-2.094;2023-02-28T07:41:36;101929.32;;;23.81;20.36
73242;BME280;65659;49.234;-2.094;2023-02-28T07:44:02;101929.22;;;23.66;20.32
73242;BME280;65659;49.234;-2.094;2023-02-28T07:46:27;101926.85;;;23.69;20.28
73242;BME280;65659;49.234;-2.094;2023-02-28T07:48:53;101928.44;;;23.77;20.22
73242;BME280;65659;49.234;-2.094;2023-02-28T07:51:19;101933.74;;;23.83;20.21
73242;BME280;65659;49.234;-2.094;2023-02-28T07:53:45;101929.68;;;23.45;20.11
73242;BME280;65659;49.234;-2.094;2023-02-28T07:56:11;101936.55;;;23.63;20.00
73242;BME280;65659;49.234;-2.094;2023-02-28T07:58:36;101933.56;;;23.75;19.89
73242;BME280;65659;49.234;-2.094;2023-02-28T08:01:06;101934.22;;;23.53;19.86
73242;BME280;65659;49.234;-2.094;2023-02-28T08:03:28;101938.13;;;23.76;19.71
73242;BME280;65659;49.234;-2.094;2023-02-28T08:05:54;101943.67;;;24.10;19.65
73242;BME280;65659;49.234;-2.094;2023-02-28T08:08:19;101940.18;;;23.59;19.74
73242;BME280;65659;49.234;-2.094;2023-02-28T08:10:45;101934.26;;;23.76;19.81
73242;BME280;65659;49.234;-2.094;2023-02-28T08:13:11;101930.51;;;23.76;19.67
73242;BME280;65659;49.234;-2.094;2023-02-28T08:15:37;101933.26;;;23.59;19.49
73242;BME280;65659;49.234;-2.094;2023-02-28T08:18:03;101936.08;;;24.12;19.38
73242;BME280;65659;49.234;-2.094;2023-02-28T08:20:28;101938.38;;;23.87;19.59
73242;BME280;65659;49.234;-2.094;2023-02-28T08:22:54;101934.82;;;23.93;19.70
73242;BME280;65659;49.234;-2.094;2023-02-28T08:25:20;101933.08;;;23.73;19.66
73242;BME280;65659;49.234;-2.094;2023-02-28T08:27:46;101936.35;;;24.46;19.46
73242;BME280;65659;49.234;-2.094;2023-02-28T08:30:13;101940.30;;;24.24;19.50
73242;BME280;65659;49.234;-2.094;2023-02-28T08:32:38;101947.31;;;24.34;19.51
73242;BME280;65659;49.234;-2.094;2023-02-28T08:35:04;101946.43;;;24.25;19.38
73242;BME280;65659;49.234;-2.094;2023-02-28T08:37:29;101946.72;;;24.28;19.67
73242;BME280;65659;49.234;-2.094;2023-02-28T08:39:55;101943.82;;;24.35;19.65
73242;BME280;65659;49.234;-2.094;2023-02-28T08:42:21;101945.61;;;24.17;19.76
73242;BME280;65659;49.234;-2.094;2023-02-28T08:44:46;101951.29;;;24.49;19.65
73242;BME280;65659;49.234;-2.094;2023-02-28T08:47:12;101954.26;;;24.31;19.56
73242;BME280;65659;49.234;-2.094;2023-02-28T08:49:38;101956.37;;;24.16;19.58
73242;BME280;65659;49.234;-2.094;2023-02-28T08:52:03;101951.15;;;24.37;19.69
73242;BME280;65659;49.234;-2.094;2023-02-28T08:54:29;101957.34;;;24.44;19.59
73242;BME280;65659;49.234;-2.094;2023-02-28T08:56:55;101947.97;;;24.77;19.45
73242;BME280;65659;49.234;-2.094;2023-02-28T08:59:21;101942.89;;;24.73;19.52
73242;BME280;65659;49.234;-2.094;2023-02-28T09:01:47;101945.00;;;24.29;19.48
73242;BME280;65659;49.234;-2.094;2023-02-28T09:04:12;101942.75;;;24.33;19.53
73242;BME280;65659;49.234;-2.094;2023-02-28T09:06:38;101946.81;;;24.65;19.44
73242;BME280;65659;49.234;-2.094;2023-02-28T09:09:06;101952.55;;;24.50;19.42
73242;BME280;65659;49.234;-2.094;2023-02-28T09:11:30;101952.62;;;24.62;19.43
73242;BME280;65659;49.234;-2.094;2023-02-28T09:13:55;101954.17;;;24.60;19.47
73242;BME280;65659;49.234;-2.094;2023-02-28T09:16:22;101944.94;;;24.60;19.79
73242;BME280;65659;49.234;-2.094;2023-02-28T09:18:47;101940.80;;;24.90;19.88
73242;BME280;65659;49.234;-2.094;2023-02-28T09:21:14;101940.94;;;24.78;19.84
73242;BME280;65659;49.234;-2.094;2023-02-28T09:23:39;101947.55;;;24.77;20.23
73242;BME280;65659;49.234;-2.094;2023-02-28T09:26:04;101956.91;;;25.09;20.54
73242;BME280;65659;49.234;-2.094;2023-02-28T09:28:29;101959.06;;;24.93;20.53
73242;BME280;65659;49.234;-2.094;2023-02-28T09:30:55;101962.73;;;24.88;20.78
73242;BME280;65659;49.234;-2.094;2023-02-28T09:33:22;101967.18;;;25.15;20.31
73242;BME280;65659;49.234;-2.094;2023-02-28T09:35:47;101968.02;;;24.87;20.59
73242;BME280;65659;49.234;-2.094;2023-02-28T09:38:13;101968.74;;;24.83;21.36
73242;BME280;65659;49.234;-2.094;2023-02-28T09:40:46;101972.04;;;24.90;20.57
73242;BME280;65659;49.234;-2.094;2023-02-28T09:43:04;101972.27;;;24.85;20.37
73242;BME280;65659;49.234;-2.094;2023-02-28T09:45:33;101976.71;;;24.87;20.59
73242;BME280;65659;49.234;-2.094;2023-02-28T09:47:58;101974.99;;;24.88;20.83
73242;BME280;65659;49.234;-2.094;2023-02-28T09:50:32;101979.21;;;24.92;20.60
73242;BME280;65659;49.234;-2.094;2023-02-28T09:52:51;101977.65;;;24.94;21.01
73242;BME280;65659;49.234;-2.094;2023-02-28T09:55:22;101975.48;;;24.95;20.68
73242;BME280;65659;49.234;-2.094;2023-02-28T09:57:41;101973.23;;;24.99;20.96
73242;BME280;65659;49.234;-2.094;2023-02-28T10:00:13;101979.03;;;24.98;20.96
73242;BME280;65659;49.234;-2.094;2023-02-28T10:02:44;101979.19;;;25.04;20.72
73242;BME280;65659;49.234;-2.094;2023-02-28T10:04:59;101978.41;;;25.04;20.43
73242;BME280;65659;49.234;-2.094;2023-02-28T10:07:35;101975.86;;;25.10;20.57
73242;BME280;65659;49.234;-2.094;2023-02-28T10:09:51;101978.62;;;25.10;20.56
73242;BME280;65659;49.234;-2.094;2023-02-28T10:12:13;101974.59;;;25.12;20.72
73242;BME280;65659;49.234;-2.094;2023-02-28T10:14:40;101975.27;;;24.95;20.76
73242;BME280;65659;49.234;-2.094;2023-02-28T10:17:08;101975.70;;;25.20;21.02
73242;BME280;65659;49.234;-2.094;2023-02-28T10:19:35;101971.69;;;25.21;20.97
73242;BME280;65659;49.234;-2.094;2023-02-28T10:21:59;101971.17;;;25.07;20.67
73242;BME280;65659;49.234;-2.094;2023-02-28T10:24:26;101964.65;;;24.85;20.75
73242;BME280;65659;49.234;-2.094;2023-02-28T10:26:48;101965.91;;;25.38;20.63
73242;BME280;65659;49.234;-2.094;2023-02-28T10:29:12;101961.89;;;25.42;20.49
73242;BME280;65659;49.234;-2.094;2023-02-28T10:31:39;101974.30;;;25.42;20.58
73242;BME280;65659;49.234;-2.094;2023-02-28T10:34:04;101978.49;;;25.21;20.62
73242;BME280;65659;49.234;-2.094;2023-02-28T10:36:30;101982.31;;;25.52;20.31
73242;BME280;65659;49.234;-2.094;2023-02-28T10:38:55;101976.30;;;25.16;20.74
73242;BME280;65659;49.234;-2.094;2023-02-28T10:41:27;101977.08;;;25.49;20.47
73242;BME280;65659;49.234;-2.094;2023-02-28T10:43:47;101973.86;;;25.49;20.26
73242;BME280;65659;49.234;-2.094;2023-02-28T10:46:15;101968.12;;;25.26;20.68
73242;BME280;65659;49.234;-2.094;2023-02-28T10:48:40;101961.94;;;25.33;20.38
73242;BME280;65659;49.234;-2.094;2023-02-28T10:51:08;101963.31;;;25.58;20.68
73242;BME280;65659;49.234;-2.094;2023-02-28T10:53:34;101963.12;;;25.66;20.29
73242;BME280;65659;49.234;-2.094;2023-02-28T10:55:59;101959.95;;;25.13;20.51
73242;BME280;65659;49.234;-2.094;2023-02-28T10:58:25;101964.36;;;25.32;20.26
73242;BME280;65659;49.234;-2.094;2023-02-28T11:00:53;101962.79;;;25.54;20.67
73242;BME280;65659;49.234;-2.094;2023-02-28T11:03:23;101962.64;;;25.29;20.30
73242;BME280;65659;49.234;-2.094;2023-02-28T11:05:39;101964.70;;;25.35;20.50
73242;BME280;65659;49.234;-2.094;2023-02-28T11:08:13;101965.97;;;25.29;20.36
73242;BME280;65659;49.234;-2.094;2023-02-28T11:10:32;101970.90;;;25.56;20.29
73242;BME280;65659;49.234;-2.094;2023-02-28T11:12:57;101968.30;;;25.20;20.29
73242;BME280;65659;49.234;-2.094;2023-02-28T11:15:25;101968.58;;;25.38;20.32
73242;BME280;65659;49.234;-2.094;2023-02-28T11:17:54;101964.12;;;25.07;20.42
73242;BME280;65659;49.234;-2.094;2023-02-28T11:20:21;101962.73;;;25.52;20.43
73242;BME280;65659;49.234;-2.094;2023-02-28T11:22:42;101962.18;;;24.98;20.61
73242;BME280;65659;49.234;-2.094;2023-02-28T11:25:12;101962.07;;;25.05;20.41
73242;BME280;65659;49.234;-2.094;2023-02-28T11:27:46;101955.86;;;25.03;20.54
73242;BME280;65659;49.234;-2.094;2023-02-28T11:29:56;101957.51;;;25.17;20.80
73242;BME280;65659;49.234;-2.094;2023-02-28T11:32:23;101958.09;;;25.26;20.56
73242;BME280;65659;49.234;-2.094;2023-02-28T11:37:15;101960.49;;;24.99;20.66
73242;BME280;65659;49.234;-2.094;2023-02-28T11:39:39;101959.92;;;25.03;20.69
73242;BME280;65659;49.234;-2.094;2023-02-28T11:42:16;101956.63;;;25.14;20.73
73242;BME280;65659;49.234;-2.094;2023-02-28T11:44:39;101961.65;;;25.36;20.71
73242;BME280;65659;49.234;-2.094;2023-02-28T11:47:00;101953.85;;;25.05;20.63
73242;BME280;65659;49.234;-2.094;2023-02-28T11:49:31;101942.18;;;25.28;20.50
73242;BME280;65659;49.234;-2.094;2023-02-28T11:51:50;101944.23;;;25.06;20.48
73242;BME280;65659;49.234;-2.094;2023-02-28T11:54:28;101941.38;;;25.31;20.53
73242;BME280;65659;49.234;-2.094;2023-02-28T11:56:42;101943.88;;;25.08;20.45
73242;BME280;65659;49.234;-2.094;2023-02-28T12:01:43;101932.52;;;24.95;20.47
73242;BME280;65659;49.234;-2.094;2023-02-28T12:04:10;101933.06;;;25.41;20.33
73242;BME280;65659;49.234;-2.094;2023-02-28T12:06:28;101925.93;;;25.43;20.32
73242;BME280;65659;49.234;-2.094;2023-02-28T12:08:59;101924.00;;;25.17;20.32
73242;BME280;65659;49.234;-2.094;2023-02-28T12:11:22;101920.86;;;25.18;20.31
73242;BME280;65659;49.234;-2.094;2023-02-28T12:13:48;101920.19;;;25.42;20.45
73242;BME280;65659;49.234;-2.094;2023-02-28T12:18:45;101916.27;;;25.15;20.10
73242;BME280;65659;49.234;-2.094;2023-02-28T12:21:03;101913.93;;;25.34;20.05
73242;BME280;65659;49.234;-2.094;2023-02-28T12:25:55;101911.86;;;25.34;20.22
73242;BME280;65659;49.234;-2.094;2023-02-28T12:28:16;101906.74;;;25.07;20.25
73242;BME280;65659;49.234;-2.094;2023-02-28T12:30:45;101906.56;;;25.38;20.50
73242;BME280;65659;49.234;-2.094;2023-02-28T12:33:07;101906.29;;;25.39;20.46
73242;BME280;65659;49.234;-2.094;2023-02-28T12:35:38;101899.72;;;25.35;20.43
73242;BME280;65659;49.234;-2.094;2023-02-28T12:38:02;101893.69;;;25.35;20.47
73242;BME280;65659;49.234;-2.094;2023-02-28T12:40:25;101890.46;;;25.22;20.68
73242;BME280;65659;49.234;-2.094;2023-02-28T12:42:52;101887.61;;;25.26;20.60
73242;BME280;65659;49.234;-2.094;2023-02-28T12:45:18;101880.05;;;25.22;20.44
73242;BME280;65659;49.234;-2.094;2023-02-28T12:47:42;101874.51;;;24.98;20.45